createdAt,value
2022-09-07T00:03:37.964Z,10.93
2022-09-07T00:08:41.383Z,10.48
2022-09-07T00:13:45.321Z,12.57
2022-09-07T00:23:05.685Z,12.93
2022-09-07T00:28:08.378Z,11.17
2022-09-07T00:33:10.705Z,10.22
2022-09-07T00:38:13.035Z,11.69
2022-09-07T00:43:27.322Z,13.43
2022-09-07T00:48:32.801Z,12.98
2022-09-07T00:53:38.171Z,11.02
2022-09-07T00:58:45.170Z,10.60
2022-09-07T01:03:48.616Z,12.64
2022-09-07T01:08:50.941Z,13.43
2022-09-07T01:13:53.901Z,11.67
2022-09-07T01:18:59.110Z,10.13
2022-09-07T01:24:15.375Z,10.63
2022-09-07T01:29:24.698Z,12.71
2022-09-07T01:34:27.076Z,12.93
2022-09-07T01:39:34.573Z,10.96
2022-09-07T01:44:36.837Z,9.79
2022-09-07T01:49:43.268Z,11.42
2022-09-07T01:54:48.998Z,13.01
2022-09-07T01:59:55.584Z,12.58
2022-09-07T02:05:03.810Z,10.60
2022-09-07T02:10:10.216Z,10.60
2022-09-07T02:15:17.271Z,12.57
2022-09-07T02:20:22.980Z,12.52
2022-09-07T02:25:28.942Z,10.51
2022-09-07T02:30:31.249Z,10.06
2022-09-07T02:35:34.262Z,12.04
2022-09-07T02:40:36.552Z,12.79
2022-09-07T02:45:40.814Z,11.01
2022-09-07T02:50:49.771Z,9.54
2022-09-07T02:55:55.135Z,8.92
2022-09-07T03:01:00.466Z,11.01
2022-09-07T03:06:04.837Z,12.43
2022-09-07T03:11:07.802Z,12.54
2022-09-07T03:16:13.126Z,10.43
2022-09-07T03:21:15.477Z,8.85
2022-09-07T03:26:23.862Z,8.78
2022-09-07T03:31:26.355Z,10.99
2022-09-07T03:36:30.653Z,12.11
2022-09-07T03:41:33.661Z,12.18
2022-09-07T03:46:36.014Z,10.13
2022-09-07T03:51:38.408Z,8.88
2022-09-07T03:56:41.226Z,10.65
2022-09-07T04:01:43.647Z,11.92
2022-09-07T04:06:46.333Z,10.45
2022-09-07T04:11:48.699Z,9.31
2022-09-07T04:16:51.118Z,11.22
2022-09-07T04:21:53.481Z,12.49
2022-09-07T04:26:56.482Z,11.39
2022-09-07T04:31:58.794Z,9.66
2022-09-07T04:37:01.089Z,10.03
2022-09-07T04:42:03.506Z,12.18
2022-09-07T04:47:06.204Z,12.64
2022-09-07T04:52:08.502Z,10.80
2022-09-07T04:57:11.415Z,9.55
2022-09-07T05:02:13.811Z,9.42
2022-09-07T05:07:16.232Z,11.87
2022-09-07T05:12:18.536Z,13.26
2022-09-07T05:17:20.873Z,12.03
2022-09-07T05:22:24.844Z,10.74
2022-09-07T05:27:27.198Z,10.19
2022-09-07T05:32:29.588Z,12.06
2022-09-07T05:37:31.954Z,13.75
2022-09-07T05:42:35.324Z,12.56
2022-09-07T05:47:38.052Z,11.55
2022-09-07T05:52:40.348Z,11.09
2022-09-07T05:57:43.185Z,10.85
2022-09-07T06:02:45.642Z,10.92
2022-09-07T06:07:48.428Z,13.30
2022-09-07T06:12:50.729Z,15.30
2022-09-07T06:17:53.739Z,14.59
2022-09-07T06:22:56.073Z,13.50
2022-09-07T06:27:59.469Z,13.00
2022-09-07T06:33:02.102Z,12.72
2022-09-07T06:38:04.395Z,12.59
2022-09-07T06:43:06.703Z,12.53
2022-09-07T06:48:09.000Z,12.52
2022-09-07T06:58:33.781Z,12.71
2022-09-07T07:03:36.612Z,12.84
2022-09-07T07:08:39.487Z,13.01
2022-09-07T07:13:42.831Z,13.21
2022-09-07T07:18:45.794Z,13.41
2022-09-07T07:23:50.025Z,13.64
2022-09-07T07:34:00.479Z,14.87
2022-09-07T07:39:03.670Z,17.12
2022-09-07T07:44:06.050Z,16.54
2022-09-07T07:49:09.043Z,16.12
2022-09-07T07:54:11.425Z,16.06
2022-09-07T07:59:15.939Z,16.08
2022-09-07T08:04:18.422Z,16.17
2022-09-07T08:09:20.793Z,16.21
2022-09-07T08:14:23.188Z,16.29
2022-09-07T08:19:25.475Z,16.45
2022-09-07T08:24:27.759Z,16.61
2022-09-07T08:29:33.813Z,16.77
2022-09-07T08:34:37.662Z,16.90
2022-09-07T08:39:40.857Z,17.01
2022-09-07T08:44:43.175Z,17.16
2022-09-07T08:49:48.660Z,17.28
2022-09-07T08:54:54.021Z,17.40
2022-09-07T08:59:59.257Z,17.52
2022-09-07T09:05:18.259Z,17.62
2022-09-07T09:10:31.092Z,17.73
2022-09-07T09:15:42.458Z,17.77
2022-09-07T09:20:47.713Z,17.82
2022-09-07T09:25:52.959Z,17.91
2022-09-07T09:30:55.334Z,18.00
2022-09-07T09:35:59.645Z,18.10
2022-09-07T09:41:05.960Z,18.27
2022-09-07T09:46:18.944Z,18.48
2022-09-07T09:56:45.864Z,18.58
2022-09-07T10:07:14.557Z,18.84
2022-09-07T10:12:19.829Z,18.90
2022-09-07T10:17:27.471Z,19.03
2022-09-07T10:22:32.925Z,19.20
2022-09-07T10:27:36.854Z,19.52
2022-09-07T10:32:42.104Z,19.79
2022-09-07T10:37:47.370Z,20.05
2022-09-07T10:48:28.860Z,20.10
2022-09-07T10:53:41.313Z,20.19
2022-09-07T11:04:09.733Z,20.03
2022-09-07T11:09:16.669Z,20.02
2022-09-07T11:14:22.199Z,20.06
2022-09-07T11:19:37.288Z,20.29
2022-09-07T11:24:45.243Z,20.57
2022-09-07T11:29:50.589Z,20.73
2022-09-07T11:34:57.363Z,20.91
2022-09-07T11:40:02.687Z,21.04
2022-09-07T11:45:12.846Z,21.02
2022-09-07T11:50:16.509Z,20.95
2022-09-07T11:55:23.793Z,20.99
2022-09-07T12:00:33.101Z,21.15
2022-09-07T12:05:38.362Z,21.30
2022-09-07T12:10:42.907Z,21.28
2022-09-07T12:15:52.443Z,21.24
2022-09-07T12:20:54.853Z,21.23
2022-09-07T12:26:17.127Z,21.33
2022-09-07T12:31:40.751Z,21.48
2022-09-07T12:36:58.987Z,21.37
2022-09-07T12:47:29.550Z,21.45
2022-09-07T12:52:31.807Z,21.68
2022-09-07T12:57:41.972Z,21.69
2022-09-07T13:02:56.763Z,21.80
2022-09-07T13:08:08.826Z,22.00
2022-09-07T13:13:14.678Z,22.26
2022-09-07T13:18:20.289Z,22.45
2022-09-07T13:23:24.117Z,22.25
2022-09-07T13:28:31.670Z,22.15
2022-09-07T13:33:34.070Z,22.16
2022-09-07T13:38:36.720Z,22.20
2022-09-07T13:43:40.055Z,22.19
2022-09-07T13:48:49.002Z,22.29
2022-09-07T13:53:52.283Z,22.41
2022-09-07T13:58:55.002Z,22.52
2022-09-07T14:04:07.586Z,22.78
2022-09-07T14:09:12.869Z,23.30
2022-09-07T14:14:17.886Z,23.74
2022-09-07T14:19:24.023Z,23.94
2022-09-07T14:24:28.674Z,24.25
2022-09-07T14:29:32.286Z,24.82
2022-09-07T14:34:35.985Z,24.76
2022-09-07T14:39:39.586Z,24.55
2022-09-07T14:44:43.095Z,24.79
2022-09-07T14:49:49.196Z,25.29
2022-09-07T14:54:52.575Z,25.57
2022-09-07T14:59:57.174Z,25.43
2022-09-07T15:05:02.588Z,25.01
2022-09-07T15:10:08.362Z,24.40
2022-09-07T15:15:12.414Z,23.51
2022-09-07T15:20:17.815Z,22.56
2022-09-07T15:25:20.131Z,21.93
2022-09-07T15:30:22.668Z,21.78
2022-09-07T15:35:25.425Z,22.23
2022-09-07T15:40:28.596Z,22.93
2022-09-07T15:45:30.938Z,23.96
2022-09-07T15:50:33.552Z,25.55
2022-09-07T15:55:37.207Z,26.65
2022-09-07T16:00:39.671Z,27.11
2022-09-07T16:05:43.978Z,26.17
2022-09-07T16:10:53.612Z,24.97
2022-09-07T16:15:59.904Z,23.38
2022-09-07T16:21:04.606Z,21.98
2022-09-07T16:26:08.125Z,20.92
2022-09-07T16:31:16.241Z,20.09
2022-09-07T16:36:19.248Z,19.39
2022-09-07T16:41:24.268Z,18.79
2022-09-07T16:46:28.267Z,18.31
2022-09-07T16:51:30.616Z,17.88
2022-09-07T16:56:38.309Z,17.48
2022-09-07T17:01:41.545Z,17.10
2022-09-07T17:06:44.467Z,16.76
2022-09-07T17:11:46.794Z,16.42
2022-09-07T17:16:49.198Z,16.06
2022-09-07T17:21:53.539Z,15.71
2022-09-07T17:26:55.847Z,15.40
2022-09-07T17:37:21.480Z,14.76
2022-09-07T17:42:26.313Z,14.47
2022-09-07T17:47:50.178Z,14.17
2022-09-07T17:52:53.164Z,13.90
2022-09-07T17:57:55.560Z,13.65
2022-09-07T18:02:58.947Z,13.44
2022-09-07T18:08:01.512Z,13.26
2022-09-07T18:13:03.907Z,13.12
2022-09-07T18:18:06.899Z,13.00
2022-09-07T18:23:10.399Z,12.84
2022-09-07T18:33:35.766Z,12.58
2022-09-07T18:38:38.099Z,12.46
2022-09-07T18:43:41.755Z,12.31
2022-09-07T18:48:44.144Z,12.16
2022-09-07T18:53:47.104Z,12.01
2022-09-07T18:58:54.456Z,11.85
2022-09-07T19:03:57.125Z,11.69
2022-09-07T19:08:59.756Z,11.56
2022-09-07T19:14:04.795Z,11.49
2022-09-07T19:19:07.669Z,11.43
2022-09-07T19:24:12.787Z,11.37
2022-09-07T19:29:17.066Z,11.31
2022-09-07T19:34:20.281Z,11.21
2022-09-07T19:39:22.616Z,11.11
2022-09-07T19:44:24.983Z,10.99
2022-09-07T19:49:27.617Z,10.99
2022-09-07T19:54:29.916Z,13.16
2022-09-07T19:59:32.258Z,15.39
2022-09-07T20:04:35.709Z,15.80
2022-09-07T20:09:37.996Z,14.12
2022-09-07T20:14:40.286Z,13.06
2022-09-07T20:19:42.607Z,12.42
2022-09-07T20:24:44.946Z,13.73
2022-09-07T20:29:47.224Z,15.69
2022-09-07T20:34:50.423Z,14.80
2022-09-07T20:39:52.827Z,13.24
2022-09-07T20:44:55.347Z,13.25
2022-09-07T20:49:57.645Z,15.34
2022-09-07T20:54:59.946Z,14.90
2022-09-07T21:00:02.425Z,13.27
2022-09-07T21:05:05.011Z,12.31
2022-09-07T21:10:07.741Z,12.67
2022-09-07T21:15:10.157Z,14.89
2022-09-07T21:20:12.443Z,14.25
2022-09-07T21:25:15.624Z,12.79
2022-09-07T21:30:18.004Z,11.97
2022-09-07T21:35:20.391Z,11.46
2022-09-07T21:40:24.491Z,11.05
2022-09-07T21:45:26.792Z,10.69
2022-09-07T21:50:29.924Z,10.41
2022-09-07T21:55:32.279Z,10.18
2022-09-07T22:00:34.664Z,9.97
2022-09-07T22:05:37.421Z,9.79
2022-09-07T22:10:39.797Z,9.62
2022-09-07T22:15:42.429Z,9.45
2022-09-07T22:20:44.804Z,9.30
2022-09-07T22:25:50.091Z,9.17
2022-09-07T22:30:54.600Z,9.09
2022-09-07T22:36:10.724Z,9.05
2022-09-07T22:41:15.181Z,9.02
2022-09-07T22:46:18.801Z,8.98
2022-09-07T22:51:21.852Z,8.94
2022-09-07T22:56:25.621Z,8.88
2022-09-07T23:01:29.310Z,8.87
2022-09-07T23:06:33.465Z,10.72
2022-09-07T23:11:36.213Z,13.32
2022-09-07T23:16:38.991Z,14.57
2022-09-07T23:21:41.880Z,13.55
2022-09-07T23:26:44.531Z,12.16
2022-09-07T23:31:47.959Z,11.38
2022-09-07T23:36:50.810Z,10.84
2022-09-07T23:41:53.513Z,10.42
2022-09-07T23:46:55.862Z,10.08
2022-09-07T23:51:58.156Z,9.80
2022-09-07T23:57:00.465Z,9.57
